sensor_id;sensor_type;location;lat;lon;timestamp;pressure;altitude;pressure_sealevel;temperature;humidity
47809;BME280;33573;38.790;-77.084;2023-08-24T00:01:57;101373.57;;;28.08;30.12
47809;BME280;33573;38.790;-77.084;2023-08-24T00:04:22;101376.06;;;27.96;30.49
47809;BME280;33573;38.790;-77.084;2023-08-24T00:06:47;101373.97;;;27.81;31.45
47809;BME280;33573;38.790;-77.084;2023-08-24T00:09:13;101369.20;;;27.91;31.20
47809;BME280;33573;38.790;-77.084;2023-08-24T00:11:38;101365.35;;;28.00;31.24
47809;BME280;33573;38.790;-77.084;2023-08-24T00:14:04;101360.99;;;27.99;31.13
47809;BME280;33573;38.790;-77.084;2023-08-24T00:16:29;101354.36;;;27.79;31.85
47809;BME280;33573;38.790;-77.084;2023-08-24T00:18:54;101351.12;;;27.66;31.83
47809;BME280;33573;38.790;-77.084;2023-08-24T00:21:20;101350.11;;;27.93;31.50
47809;BME280;33573;38.790;-77.084;2023-08-24T00:23:45;101347.24;;;27.65;32.34
47809;BME280;33573;38.790;-77.084;2023-08-24T00:26:10;101349.59;;;27.70;32.22
47809;BME280;33573;38.790;-77.084;2023-08-24T00:28:36;101350.27;;;27.71;32.46
47809;BME280;33573;38.790;-77.084;2023-08-24T00:31:01;101353.49;;;27.62;32.36
47809;BME280;33573;38.790;-77.084;2023-08-24T00:33:26;101362.54;;;27.67;32.65
47809;BME280;33573;38.790;-77.084;2023-08-24T00:35:51;101366.81;;;27.77;32.54
47809;BME280;33573;38.790;-77.084;2023-08-24T00:38:17;101366.85;;;27.69;32.45
47809;BME280;33573;38.790;-77.084;2023-08-24T00:40:42;101365.54;;;27.35;32.74
47809;BME280;33573;38.790;-77.084;2023-08-24T00:43:07;101367.54;;;27.41;32.82
47809;BME280;33573;38.790;-77.084;2023-08-24T00:45:33;101373.27;;;27.08;33.07
47809;BME280;33573;38.790;-77.084;2023-08-24T00:47:58;101383.63;;;27.50;32.49
47809;BME280;33573;38.790;-77.084;2023-08-24T00:50:23;101387.90;;;27.44;32.26
47809;BME280;33573;38.790;-77.084;2023-08-24T00:52:49;101394.58;;;27.28;32.66
47809;BME280;33573;38.790;-77.084;2023-08-24T00:55:15;101404.06;;;27.32;32.49
47809;BME280;33573;38.790;-77.084;2023-08-24T00:57:40;101409.86;;;27.00;32.38
47809;BME280;33573;38.790;-77.084;2023-08-24T01:00:06;101409.99;;;27.46;32.27
47809;BME280;33573;38.790;-77.084;2023-08-24T01:02:30;101418.60;;;27.34;32.30
47809;BME280;33573;38.790;-77.084;2023-08-24T01:04:56;101421.66;;;27.40;32.21
47809;BME280;33573;38.790;-77.084;2023-08-24T01:07:21;101417.07;;;27.26;32.86
47809;BME280;33573;38.790;-77.084;2023-08-24T01:09:46;101414.43;;;27.24;32.57
47809;BME280;33573;38.790;-77.084;2023-08-24T01:12:19;101424.58;;;27.09;32.48
47809;BME280;33573;38.790;-77.084;2023-08-24T01:14:49;101423.52;;;27.44;32.28
47809;BME280;33573;38.790;-77.084;2023-08-24T01:17:05;101425.47;;;27.33;32.35
47809;BME280;33573;38.790;-77.084;2023-08-24T01:19:37;101430.72;;;27.24;32.88
47809;BME280;33573;38.790;-77.084;2023-08-24T01:21:54;101439.00;;;26.88;33.08
47809;BME280;33573;38.790;-77.084;2023-08-24T01:24:27;101440.88;;;27.05;32.49
47809;BME280;33573;38.790;-77.084;2023-08-24T01:26:44;101448.56;;;27.08;32.41
47809;BME280;33573;38.790;-77.084;2023-08-24T01:29:10;101458.05;;;27.21;32.70
47809;BME280;33573;38.790;-77.084;2023-08-24T01:31:34;101456.90;;;27.02;32.66
47809;BME280;33573;38.790;-77.084;2023-08-24T01:33:59;101453.65;;;26.82;32.67
47809;BME280;33573;38.790;-77.084;2023-08-24T01:36:25;101452.89;;;27.06;32.68
47809;BME280;33573;38.790;-77.084;2023-08-24T01:38:58;101454.31;;;27.00;33.04
47809;BME280;33573;38.790;-77.084;2023-08-24T01:41:19;101461.10;;;26.80;33.21
47809;BME280;33573;38.790;-77.084;2023-08-24T01:43:43;101465.73;;;27.08;32.83
47809;BME280;33573;38.790;-77.084;2023-08-24T01:46:07;101456.49;;;26.74;32.53
47809;BME280;33573;38.790;-77.084;2023-08-24T01:48:32;101449.29;;;27.26;32.39
47809;BME280;33573;38.790;-77.084;2023-08-24T01:50:57;101443.06;;;26.72;32.29
47809;BME280;33573;38.790;-77.084;2023-08-24T01:53:22;101444.63;;;27.00;32.30
47809;BME280;33573;38.790;-77.084;2023-08-24T01:55:47;101447.74;;;27.02;32.29
47809;BME280;33573;38.790;-77.084;2023-08-24T01:58:12;101446.55;;;27.03;31.77
47809;BME280;33573;38.790;-77.084;2023-08-24T02:00:37;101450.34;;;26.88;32.01
47809;BME280;33573;38.790;-77.084;2023-08-24T02:03:03;101452.36;;;26.74;32.11
47809;BME280;33573;38.790;-77.084;2023-08-24T02:05:28;101449.21;;;26.91;31.94
47809;BME280;33573;38.790;-77.084;2023-08-24T02:07:54;101450.79;;;26.55;31.81
47809;BME280;33573;38.790;-77.084;2023-08-24T02:10:19;101452.62;;;26.66;32.08
47809;BME280;33573;38.790;-77.084;2023-08-24T02:12:45;101446.81;;;27.05;32.09
47809;BME280;33573;38.790;-77.084;2023-08-24T02:15:10;101429.07;;;26.85;32.16
47809;BME280;33573;38.790;-77.084;2023-08-24T02:17:35;101425.28;;;26.95;31.55
47809;BME280;33573;38.790;-77.084;2023-08-24T02:20:01;101426.41;;;26.70;31.75
47809;BME280;33573;38.790;-77.084;2023-08-24T02:22:26;101428.14;;;26.96;31.39
47809;BME280;33573;38.790;-77.084;2023-08-24T02:24:52;101420.21;;;26.41;31.91
47809;BME280;33573;38.790;-77.084;2023-08-24T02:27:17;101417.03;;;25.99;32.06
47809;BME280;33573;38.790;-77.084;2023-08-24T02:29:42;101421.30;;;26.12;31.81
47809;BME280;33573;38.790;-77.084;2023-08-24T02:32:07;101429.36;;;26.37;31.43
47809;BME280;33573;38.790;-77.084;2023-08-24T02:34:32;101431.76;;;26.12;31.95
47809;BME280;33573;38.790;-77.084;2023-08-24T02:36:58;101436.65;;;25.85;31.64
47809;BME280;33573;38.790;-77.084;2023-08-24T02:39:23;101434.81;;;26.46;31.43
47809;BME280;33573;38.790;-77.084;2023-08-24T02:41:48;101429.33;;;26.33;31.39
47809;BME280;33573;38.790;-77.084;2023-08-24T02:44:13;101433.62;;;26.69;30.91
47809;BME280;33573;38.790;-77.084;2023-08-24T02:46:39;101437.86;;;26.04;31.61
47809;BME280;33573;38.790;-77.084;2023-08-24T02:49:04;101442.08;;;26.38;31.21
47809;BME280;33573;38.790;-77.084;2023-08-24T02:51:29;101451.77;;;25.95;31.54
47809;BME280;33573;38.790;-77.084;2023-08-24T02:53:55;101462.42;;;25.69;31.61
47809;BME280;33573;38.790;-77.084;2023-08-24T02:56:20;101468.18;;;25.96;31.48
47809;BME280;33573;38.790;-77.084;2023-08-24T02:58:45;101468.62;;;25.72;31.37
47809;BME280;33573;38.790;-77.084;2023-08-24T03:01:11;101468.46;;;25.43;31.82
47809;BME280;33573;38.790;-77.084;2023-08-24T03:03:37;101471.53;;;25.64;31.10
47809;BME280;33573;38.790;-77.084;2023-08-24T03:06:03;101474.08;;;26.23;30.58
47809;BME280;33573;38.790;-77.084;2023-08-24T03:08:27;101482.53;;;26.29;30.52
47809;BME280;33573;38.790;-77.084;2023-08-24T03:10:53;101484.39;;;26.26;30.29
47809;BME280;33573;38.790;-77.084;2023-08-24T03:13:18;101476.73;;;26.17;30.77
47809;BME280;33573;38.790;-77.084;2023-08-24T03:15:43;101476.05;;;26.47;30.33
47809;BME280;33573;38.790;-77.084;2023-08-24T03:18:10;101473.71;;;26.38;30.18
47809;BME280;33573;38.790;-77.084;2023-08-24T03:20:34;101468.87;;;26.16;30.83
47809;BME280;33573;38.790;-77.084;2023-08-24T03:23:00;101459.56;;;26.34;30.50
47809;BME280;33573;38.790;-77.084;2023-08-24T03:25:25;101448.94;;;26.27;30.42
47809;BME280;33573;38.790;-77.084;2023-08-24T03:27:50;101443.55;;;26.53;30.66
47809;BME280;33573;38.790;-77.084;2023-08-24T03:30:16;101441.35;;;25.85;31.07
47809;BME280;33573;38.790;-77.084;2023-08-24T03:32:41;101447.11;;;26.47;30.65
47809;BME280;33573;38.790;-77.084;2023-08-24T03:35:07;101452.78;;;26.43;30.65
47809;BME280;33573;38.790;-77.084;2023-08-24T03:37:32;101454.39;;;26.45;30.78
47809;BME280;33573;38.790;-77.084;2023-08-24T03:39:57;101448.66;;;26.41;30.59
47809;BME280;33573;38.790;-77.084;2023-08-24T03:42:22;101445.10;;;26.58;30.74
47809;BME280;33573;38.790;-77.084;2023-08-24T03:44:48;101444.54;;;26.61;30.81
47809;BME280;33573;38.790;-77.084;2023-08-24T03:47:13;101448.51;;;26.28;30.89
47809;BME280;33573;38.790;-77.084;2023-08-24T03:49:41;101448.09;;;26.51;30.88
47809;BME280;33573;38.790;-77.084;2023-08-24T03:52:04;101446.67;;;26.62;30.85
47809;BME280;33573;38.790;-77.084;2023-08-24T03:54:29;101452.53;;;26.30;31.10
47809;BME280;33573;38.790;-77.084;2023-08-24T03:56:55;101459.33;;;26.52;31.12
47809;BME280;33573;38.790;-77.084;2023-08-24T03:59:20;101461.46;;;25.96;31.58
47809;BME280;33573;38.790;-77.084;2023-08-24T04:01:45;101458.10;;;25.79;31.90
47809;BME280;33573;38.790;-77.084;2023-08-24T04:04:11;101459.77;;;26.00;31.23
47809;BME280;33573;38.790;-77.084;2023-08-24T04:06:36;101456.33;;;25.95;31.38
47809;BME280;33573;38.790;-77.084;2023-08-24T04:09:01;101448.15;;;26.24;31.38
47809;BME280;33573;38.790;-77.084;2023-08-24T04:11:26;101439.00;;;25.67;32.02
47809;BME280;33573;38.790;-77.084;2023-08-24T04:13:52;101434.85;;;26.14;31.50
47809;BME280;33573;38.790;-77.084;2023-08-24T04:16:18;101437.27;;;25.93;31.77
47809;BME280;33573;38.790;-77.084;2023-08-24T04:18:43;101434.72;;;26.25;31.41
47809;BME280;33573;38.790;-77.084;2023-08-24T04:21:08;101438.29;;;26.33;31.50
47809;BME280;33573;38.790;-77.084;2023-08-24T04:23:34;101439.99;;;26.11;31.74
47809;BME280;33573;38.790;-77.084;2023-08-24T04:25:59;101446.34;;;26.15;31.93
47809;BME280;33573;38.790;-77.084;2023-08-24T04:28:25;101438.18;;;26.18;31.87
47809;BME280;33573;38.790;-77.084;2023-08-24T04:30:51;101430.47;;;25.65;32.16
47809;BME280;33573;38.790;-77.084;2023-08-24T04:33:15;101426.74;;;26.27;31.81
47809;BME280;33573;38.790;-77.084;2023-08-24T04:35:41;101423.86;;;25.85;32.35
47809;BME280;33573;38.790;-77.084;2023-08-24T04:38:06;101414.26;;;26.04;32.17
47809;BME280;33573;38.790;-77.084;2023-08-24T04:40:46;101402.28;;;26.04;32.36
47809;BME280;33573;38.790;-77.084;2023-08-24T04:42:57;101396.39;;;26.20;32.29
47809;BME280;33573;38.790;-77.084;2023-08-24T04:45:23;101391.42;;;25.79;32.79
47809;BME280;33573;38.790;-77.084;2023-08-24T04:47:48;101386.55;;;26.23;32.21
47809;BME280;33573;38.790;-77.084;2023-08-24T04:50:13;101380.87;;;26.00;32.62
47809;BME280;33573;38.790;-77.084;2023-08-24T04:52:38;101377.04;;;26.08;32.62
47809;BME280;33573;38.790;-77.084;2023-08-24T04:55:04;101378.96;;;26.05;32.80
47809;BME280;33573;38.790;-77.084;2023-08-24T04:57:29;101381.75;;;25.88;33.10
47809;BME280;33573;38.790;-77.084;2023-08-24T04:59:55;101380.01;;;25.99;32.97
47809;BME280;33573;38.790;-77.084;2023-08-24T05:02:20;101386.25;;;25.66;33.12
47809;BME280;33573;38.790;-77.084;2023-08-24T05:04:45;101394.26;;;26.15;32.94
47809;BME280;33573;38.790;-77.084;2023-08-24T05:07:10;101406.07;;;25.28;33.74
47809;BME280;33573;38.790;-77.084;2023-08-24T05:09:36;101408.97;;;25.37;33.87
47809;BME280;33573;38.790;-77.084;2023-08-24T05:12:01;101417.95;;;25.94;33.33
47809;BME280;33573;38.790;-77.084;2023-08-24T05:14:27;101414.60;;;25.64;33.68
47809;BME280;33573;38.790;-77.084;2023-08-24T05:16:52;101414.10;;;25.91;33.78
47809;BME280;33573;38.790;-77.084;2023-08-24T05:19:18;101409.64;;;25.80;33.57
47809;BME280;33573;38.790;-77.084;2023-08-24T05:21:43;101408.21;;;25.81;33.67
47809;BME280;33573;38.790;-77.084;2023-08-24T05:24:08;101405.00;;;25.76;33.79
47809;BME280;33573;38.790;-77.084;2023-08-24T05:26:34;101406.48;;;25.76;33.91
47809;BME280;33573;38.790;-77.084;2023-08-24T05:28:59;101406.19;;;25.96;33.87
47809;BME280;33573;38.790;-77.084;2023-08-24T05:31:24;101409.18;;;25.51;34.24
47809;BME280;33573;38.790;-77.084;2023-08-24T05:33:50;101411.37;;;25.96;33.99
47809;BME280;33573;38.790;-77.084;2023-08-24T05:36:15;101406.87;;;25.74;33.89
47809;BME280;33573;38.790;-77.084;2023-08-24T05:38:41;101400.54;;;25.85;33.69
47809;BME280;33573;38.790;-77.084;2023-08-24T05:41:06;101406.80;;;25.81;33.97
47809;BME280;33573;38.790;-77.084;2023-08-24T05:43:31;101410.65;;;25.73;33.92
47809;BME280;33573;38.790;-77.084;2023-08-24T05:45:57;101408.69;;;25.48;34.11
47809;BME280;33573;38.790;-77.084;2023-08-24T05:48:22;101405.90;;;25.84;34.25
47809;BME280;33573;38.790;-77.084;2023-08-24T05:50:47;101399.24;;;25.52;34.64
47809;BME280;33573;38.790;-77.084;2023-08-24T05:53:13;101386.23;;;25.68;34.08
47809;BME280;33573;38.790;-77.084;2023-08-24T05:55:38;101383.18;;;25.56;34.39
47809;BME280;33573;38.790;-77.084;2023-08-24T05:58:03;101379.97;;;25.94;34.09
47809;BME280;33573;38.790;-77.084;2023-08-24T06:00:28;101378.39;;;25.84;34.01
47809;BME280;33573;38.790;-77.084;2023-08-24T06:02:53;101374.10;;;25.44;34.35
47809;BME280;33573;38.790;-77.084;2023-08-24T06:05:18;101366.40;;;25.54;34.49
47809;BME280;33573;38.790;-77.084;2023-08-24T06:07:44;101365.16;;;25.37;34.66
47809;BME280;33573;38.790;-77.084;2023-08-24T06:10:10;101364.41;;;25.32;34.83
47809;BME280;33573;38.790;-77.084;2023-08-24T06:12:34;101367.59;;;25.55;34.80
47809;BME280;33573;38.790;-77.084;2023-08-24T06:14:59;101368.38;;;25.34;35.02
47809;BME280;33573;38.790;-77.084;2023-08-24T06:17:25;101366.52;;;25.17;35.03
47809;BME280;33573;38.790;-77.084;2023-08-24T06:19:50;101370.45;;;25.76;34.48
47809;BME280;33573;38.790;-77.084;2023-08-24T06:22:16;101371.92;;;25.52;34.52
47809;BME280;33573;38.790;-77.084;2023-08-24T06:24:41;101368.07;;;25.40;34.66
47809;BME280;33573;38.790;-77.084;2023-08-24T06:27:07;101369.35;;;25.57;34.54
47809;BME280;33573;38.790;-77.084;2023-08-24T06:29:32;101376.02;;;25.64;34.88
47809;BME280;33573;38.790;-77.084;2023-08-24T06:31:57;101384.56;;;25.51;34.44
47809;BME280;33573;38.790;-77.084;2023-08-24T06:34:23;101386.20;;;25.36;34.36
47809;BME280;33573;38.790;-77.084;2023-08-24T06:36:49;101386.10;;;25.71;34.84
47809;BME280;33573;38.790;-77.084;2023-08-24T06:39:13;101385.78;;;25.35;35.09
47809;BME280;33573;38.790;-77.084;2023-08-24T06:41:39;101383.58;;;25.53;34.89
47809;BME280;33573;38.790;-77.084;2023-08-24T06:44:04;101380.76;;;25.49;34.67
47809;BME280;33573;38.790;-77.084;2023-08-24T06:46:30;101375.84;;;25.36;35.02
47809;BME280;33573;38.790;-77.084;2023-08-24T06:48:55;101377.39;;;25.41;35.40
47809;BME280;33573;38.790;-77.084;2023-08-24T06:51:20;101378.49;;;25.30;35.25
47809;BME280;33573;38.790;-77.084;2023-08-24T06:53:45;101376.51;;;25.67;35.66
47809;BME280;33573;38.790;-77.084;2023-08-24T06:56:11;101366.75;;;25.60;35.75
47809;BME280;33573;38.790;-77.084;2023-08-24T06:58:36;101362.02;;;25.29;36.22
47809;BME280;33573;38.790;-77.084;2023-08-24T07:01:01;101359.16;;;25.52;35.88
47809;BME280;33573;38.790;-77.084;2023-08-24T07:03:27;101355.78;;;25.45;35.71
47809;BME280;33573;38.790;-77.084;2023-08-24T07:05:52;101349.09;;;24.96;36.58
47809;BME280;33573;38.790;-77.084;2023-08-24T07:08:17;101349.19;;;25.19;36.23
47809;BME280;33573;38.790;-77.084;2023-08-24T07:10:43;101348.72;;;25.00;36.38
47809;BME280;33573;38.790;-77.084;2023-08-24T07:13:08;101354.52;;;25.60;35.56
47809;BME280;33573;38.790;-77.084;2023-08-24T07:15:34;101360.03;;;24.47;37.03
47809;BME280;33573;38.790;-77.084;2023-08-24T07:17:58;101357.68;;;24.84;36.43
47809;BME280;33573;38.790;-77.084;2023-08-24T07:20:24;101364.73;;;24.28;36.77
47809;BME280;33573;38.790;-77.084;2023-08-24T07:22:49;101357.96;;;24.82;35.80
47809;BME280;33573;38.790;-77.084;2023-08-24T07:25:14;101349.91;;;24.60;35.89
47809;BME280;33573;38.790;-77.084;2023-08-24T07:27:40;101343.96;;;24.64;35.57
47809;BME280;33573;38.790;-77.084;2023-08-24T07:30:06;101337.83;;;24.91;34.99
47809;BME280;33573;38.790;-77.084;2023-08-24T07:32:30;101332.82;;;24.50;35.22
47809;BME280;33573;38.790;-77.084;2023-08-24T07:34:56;101334.58;;;24.61;34.98
47809;BME280;33573;38.790;-77.084;2023-08-24T07:37:21;101336.52;;;24.90;34.57
47809;BME280;33573;38.790;-77.084;2023-08-24T07:39:46;101337.63;;;24.79;34.63
47809;BME280;33573;38.790;-77.084;2023-08-24T07:42:12;101336.32;;;24.95;34.42
47809;BME280;33573;38.790;-77.084;2023-08-24T07:44:37;101336.69;;;24.52;35.03
47809;BME280;33573;38.790;-77.084;2023-08-24T07:47:02;101329.70;;;24.50;34.94
47809;BME280;33573;38.790;-77.084;2023-08-24T07:49:28;101328.44;;;24.69;34.72
47809;BME280;33573;38.790;-77.084;2023-08-24T07:51:53;101329.43;;;24.41;35.17
47809;BME280;33573;38.790;-77.084;2023-08-24T07:54:18;101327.48;;;24.68;34.90
47809;BME280;33573;38.790;-77.084;2023-08-24T07:56:44;101316.77;;;24.41;35.35
47809;BME280;33573;38.790;-77.084;2023-08-24T07:59:09;101308.18;;;24.67;35.07
47809;BME280;33573;38.790;-77.084;2023-08-24T08:01:35;101298.53;;;24.39;35.51
47809;BME280;33573;38.790;-77.084;2023-08-24T08:04:00;101289.29;;;24.85;34.90
47809;BME280;33573;38.790;-77.084;2023-08-24T08:06:26;101293.54;;;24.55;35.30
47809;BME280;33573;38.790;-77.084;2023-08-24T08:08:52;101290.26;;;24.75;35.06
47809;BME280;33573;38.790;-77.084;2023-08-24T08:11:17;101289.57;;;24.45;35.47
47809;BME280;33573;38.790;-77.084;2023-08-24T08:13:42;101287.58;;;24.90;34.92
47809;BME280;33573;38.790;-77.084;2023-08-24T08:16:08;101283.59;;;25.18;34.45
47809;BME280;33573;38.790;-77.084;2023-08-24T08:18:33;101274.02;;;25.37;34.26
47809;BME280;33573;38.790;-77.084;2023-08-24T08:20:58;101271.74;;;25.21;34.17
47809;BME280;33573;38.790;-77.084;2023-08-24T08:23:23;101281.52;;;25.38;34.34
47809;BME280;33573;38.790;-77.084;2023-08-24T08:25:48;101281.68;;;25.37;34.41
47809;BME280;33573;38.790;-77.084;2023-08-24T08:28:14;101290.49;;;25.20;34.41
47809;BME280;33573;38.790;-77.084;2023-08-24T08:30:39;101292.75;;;25.37;34.59
47809;BME280;33573;38.790;-77.084;2023-08-24T08:33:04;101300.57;;;25.52;34.55
47809;BME280;33573;38.790;-77.084;2023-08-24T08:35:29;101304.69;;;25.21;34.48
47809;BME280;33573;38.790;-77.084;2023-08-24T08:37:55;101297.21;;;24.53;35.49
47809;BME280;33573;38.790;-77.084;2023-08-24T08:40:21;101288.79;;;24.98;34.90
47809;BME280;33573;38.790;-77.084;2023-08-24T08:42:46;101286.76;;;25.08;34.56
47809;BME280;33573;38.790;-77.084;2023-08-24T08:45:11;101289.66;;;25.13;34.40
47809;BME280;33573;38.790;-77.084;2023-08-24T08:47:36;101294.64;;;24.73;34.84
47809;BME280;33573;38.790;-77.084;2023-08-24T08:50:02;101303.22;;;25.01;34.50
47809;BME280;33573;38.790;-77.084;2023-08-24T08:52:27;101308.12;;;25.02;34.33
47809;BME280;33573;38.790;-77.084;2023-08-24T08:54:52;101311.54;;;25.20;34.15
47809;BME280;33573;38.790;-77.084;2023-08-24T08:57:18;101313.17;;;25.08;34.20
47809;BME280;33573;38.790;-77.084;2023-08-24T08:59:43;101315.17;;;24.92;34.36
47809;BME280;33573;38.790;-77.084;2023-08-24T09:02:13;101311.71;;;24.75;34.56
47809;BME280;33573;38.790;-77.084;2023-08-24T09:04:34;101311.16;;;24.40;35.04
47809;BME280;33573;38.790;-77.084;2023-08-24T09:07:00;101304.24;;;24.52;34.79
47809;BME280;33573;38.790;-77.084;2023-08-24T09:09:25;101306.06;;;24.92;34.31
47809;BME280;33573;38.790;-77.084;2023-08-24T09:11:50;101306.84;;;25.16;34.06
47809;BME280;33573;38.790;-77.084;2023-08-24T09:14:15;101307.62;;;24.77;34.52
47809;BME280;33573;38.790;-77.084;2023-08-24T09:16:41;101301.57;;;24.96;34.39
47809;BME280;33573;38.790;-77.084;2023-08-24T09:19:06;101297.40;;;25.32;34.27
47809;BME280;33573;38.790;-77.084;2023-08-24T09:21:31;101299.14;;;24.98;34.48
47809;BME280;33573;38.790;-77.084;2023-08-24T09:23:56;101293.60;;;25.02;34.47
47809;BME280;33573;38.790;-77.084;2023-08-24T09:26:28;101298.59;;;25.10;34.41
47809;BME280;33573;38.790;-77.084;2023-08-24T09:28:47;101301.29;;;24.84;34.61
47809;BME280;33573;38.790;-77.084;2023-08-24T09:31:13;101298.53;;;25.10;34.33
47809;BME280;33573;38.790;-77.084;2023-08-24T09:33:38;101296.69;;;24.83;34.72
47809;BME280;33573;38.790;-77.084;2023-08-24T09:36:06;101307.25;;;24.68;34.98
47809;BME280;33573;38.790;-77.084;2023-08-24T09:38:29;101311.26;;;24.87;34.75
47809;BME280;33573;38.790;-77.084;2023-08-24T09:40:55;101316.84;;;24.84;34.93
47809;BME280;33573;38.790;-77.084;2023-08-24T09:43:20;101314.50;;;24.88;35.39
47809;BME280;33573;38.790;-77.084;2023-08-24T09:45:49;101310.81;;;25.10;35.29
47809;BME280;33573;38.790;-77.084;2023-08-24T09:48:11;101302.82;;;24.77;34.90
47809;BME280;33573;38.790;-77.084;2023-08-24T09:50:36;101303.70;;;24.95;35.23
47809;BME280;33573;38.790;-77.084;2023-08-24T09:53:02;101299.55;;;25.07;35.25
47809;BME280;33573;38.790;-77.084;2023-08-24T09:55:29;101300.12;;;24.90;35.09
47809;BME280;33573;38.790;-77.084;2023-08-24T09:57:54;101297.82;;;24.87;35.17
47809;BME280;33573;38.790;-77.084;2023-08-24T10:00:17;101296.20;;;24.77;35.43
47809;BME280;33573;38.790;-77.084;2023-08-24T10:02:48;101299.73;;;24.95;35.35
47809;BME280;33573;38.790;-77.084;2023-08-24T10:05:08;101306.15;;;24.60;35.55
47809;BME280;33573;38.790;-77.084;2023-08-24T10:07:33;101311.55;;;24.79;35.29
47809;BME280;33573;38.790;-77.084;2023-08-24T10:10:02;101313.00;;;24.65;35.48
47809;BME280;33573;38.790;-77.084;2023-08-24T10:12:26;101328.06;;;24.36;35.88
47809;BME280;33573;38.790;-77.084;2023-08-24T10:14:56;101339.03;;;24.67;35.44
47809;BME280;33573;38.790;-77.084;2023-08-24T10:17:15;101343.67;;;24.82;35.29
47809;BME280;33573;38.790;-77.084;2023-08-24T10:19:41;101351.69;;;24.68;35.51
47809;BME280;33573;38.790;-77.084;2023-08-24T10:22:06;101360.51;;;25.08;35.56
47809;BME280;33573;38.790;-77.084;2023-08-24T10:24:31;101361.67;;;24.73;35.71
47809;BME280;33573;38.790;-77.084;2023-08-24T10:26:57;101354.43;;;24.89;35.57
47809;BME280;33573;38.790;-77.084;2023-08-24T10:29:23;101357.28;;;25.13;35.95
47809;BME280;33573;38.790;-77.084;2023-08-24T10:31:49;101357.55;;;24.74;36.18
47809;BME280;33573;38.790;-77.084;2023-08-24T10:34:13;101351.10;;;24.69;36.19
47809;BME280;33573;38.790;-77.084;2023-08-24T10:36:39;101351.19;;;24.51;35.79
47809;BME280;33573;38.790;-77.084;2023-08-24T10:39:04;101343.87;;;24.85;35.58
47809;BME280;33573;38.790;-77.084;2023-08-24T10:41:30;101348.04;;;24.70;35.64
47809;BME280;33573;38.790;-77.084;2023-08-24T10:44:04;101343.04;;;24.74;35.70
47809;BME280;33573;38.790;-77.084;2023-08-24T10:46:20;101341.72;;;24.63;35.59
47809;BME280;33573;38.790;-77.084;2023-08-24T10:48:57;101344.19;;;24.79;35.59
47809;BME280;33573;38.790;-77.084;2023-08-24T10:51:17;101350.70;;;24.72;35.89
47809;BME280;33573;38.790;-77.084;2023-08-24T10:53:38;101357.92;;;24.86;35.91
47809;BME280;33573;38.790;-77.084;2023-08-24T10:56:11;101363.52;;;25.01;35.52
47809;BME280;33573;38.790;-77.084;2023-08-24T10:58:27;101369.50;;;24.84;35.76
47809;BME280;33573;38.790;-77.084;2023-08-24T11:00:52;101367.47;;;24.83;35.53
47809;BME280;33573;38.790;-77.084;2023-08-24T11:05:43;101363.19;;;25.28;35.28
47809;BME280;33573;38.790;-77.084;2023-08-24T11:08:08;101363.24;;;24.45;36.03
47809;BME280;33573;38.790;-77.084;2023-08-24T11:10:45;101365.73;;;24.51;35.83
47809;BME280;33573;38.790;-77.084;2023-08-24T11:13:07;101367.03;;;25.10;35.42
47809;BME280;33573;38.790;-77.084;2023-08-24T11:15:30;101372.62;;;24.59;35.83
47809;BME280;33573;38.790;-77.084;2023-08-24T11:20:16;101372.99;;;24.73;36.23
47809;BME280;33573;38.790;-77.084;2023-08-24T11:22:40;101370.41;;;24.92;35.79
47809;BME280;33573;38.790;-77.084;2023-08-24T11:25:11;101374.12;;;24.61;36.34
47809;BME280;33573;38.790;-77.084;2023-08-24T11:27:32;101377.34;;;24.39;36.66
47809;BME280;33573;38.790;-77.084;2023-08-24T11:29:59;101376.46;;;24.52;36.90
47809;BME280;33573;38.790;-77.084;2023-08-24T11:32:22;101371.62;;;24.73;36.55
47809;BME280;33573;38.790;-77.084;2023-08-24T11:34:47;101370.88;;;24.60;36.34
47809;BME280;33573;38.790;-77.084;2023-08-24T11:37:18;101366.18;;;24.58;36.67
47809;BME280;33573;38.790;-77.084;2023-08-24T11:39:38;101362.62;;;24.68;36.97
47809;BME280;33573;38.790;-77.084;2023-08-24T11:42:05;101360.76;;;24.04;37.33
47809;BME280;33573;38.790;-77.084;2023-08-24T11:44:29;101372.19;;;24.30;37.07
47809;BME280;33573;38.790;-77.084;2023-08-24T11:46:56;101377.82;;;24.53;36.37
47809;BME280;33573;38.790;-77.084;2023-08-24T11:49:19;101381.30;;;24.31;36.94
47809;BME280;33573;38.790;-77.084;2023-08-24T11:51:45;101374.43;;;24.68;36.18
47809;BME280;33573;38.790;-77.084;2023-08-24T11:54:10;101374.42;;;23.92;37.33
47809;BME280;33573;38.790;-77.084;2023-08-24T11:56:40;101378.62;;;24.43;36.77
47809;BME280;33573;38.790;-77.084;2023-08-24T11:59:01;101379.36;;;24.79;36.28
47809;BME280;33573;38.790;-77.084;2023-08-24T12:01:27;101377.15;;;24.70;36.55
47809;BME280;33573;38.790;-77.084;2023-08-24T12:03:52;101385.03;;;24.60;37.64
47809;BME280;33573;38.790;-77.084;2023-08-24T12:06:17;101395.24;;;24.58;37.41
47809;BME280;33573;38.790;-77.084;2023-08-24T12:08:45;101396.69;;;24.60;37.71
47809;BME280;33573;38.790;-77.084;2023-08-24T12:11:13;101390.64;;;24.54;36.82
47809;BME280;33573;38.790;-77.084;2023-08-24T12:13:33;101392.60;;;24.64;36.86
47809;BME280;33573;38.790;-77.084;2023-08-24T12:15:58;101397.31;;;24.59;36.88
47809;BME280;33573;38.790;-77.084;2023-08-24T12:18:24;101405.50;;;24.82;37.28
47809;BME280;33573;38.790;-77.084;2023-08-24T12:20:49;101416.20;;;24.80;37.93
47809;BME280;33573;38.790;-77.084;2023-08-24T12:23:14;101422.97;;;24.69;38.70
47809;BME280;33573;38.790;-77.084;2023-08-24T12:25:43;101428.76;;;24.55;37.63